Ookala, HI (96774)

7:29 PM HST on September 14, 2014 (GMT -1000)
Hamakua Coast | Change Station
CLOSE
Current Station
Personal Weather Station
Location: Ninole, HI
Elevation: 1120 ft
Nearby Weather Stations
Active Advisory: High Surf Advisory Active Notice: Record Report

Elev 1120 ft 19.92 °N, 155.18 °W | Updated 9 minutes ago

Mostly Cloudy
Mostly Cloudy
73.5 °F
Feels Like 71 °F
N
0.0
Wind Variable Wind from NNE

Today
High -- | Low -- °F
--% Chance of Precip.
Yesterday
High -- | Low -- °F
Precip. -- in
6:08 AM 6:24 PM
Waning Gibbous, 59% visible
Pressure 29.91 in
Visibility 10.0 miles
Clouds Mostly Cloudy 2400 ft
Heat Index 71 °F
Dew Point 71 °F
Humidity 92%
Rainfall 0.00 in
Snow Depth Not available.
UV 0 out of 12
Pollen Not available.
Air Quality Not available.
Flu Activity Not available.
SPECI PHTO 150516Z 00000KT 10SM BKN024 25/22 A2991 RMK AO2 T02500217 $

More Conditions Fewer Conditions

Pressure 29.91 in
Visibility 10.0 miles
Clouds Mostly Cloudy 2400 ft
Heat Index 71 °F
Dew Point 71 °F
Humidity 92%
Rainfall 0.00 in
Snow Depth Not available.
UV 0 out of 12
Pollen Not available.
Air Quality Not available.
Flu Activity Not available.
SPECI PHTO 150516Z 00000KT 10SM BKN024 25/22 A2991 RMK AO2 T02500217 $

More Conditions Fewer Conditions

10-Day Weather Forecast

Almanac

Astronomy

Sep. 14, 2014 Rise Set
Actual Time 6:08 AM HST 6:24 PM HST
Civil Twilight 5:46 AM HST 6:46 PM HST
Nautical Twilight 5:20 AM HST 7:12 PM HST
Astronomical Twilight 4:54 AM HST 7:38 PM HST
Moon 11:10 PM HST (9/14) 11:40 AM HST (9/14)
Length of Visible Light 13h 00m
Length of Day
12h 16m
Tomorrow will be 1m 7s shorter.
Waning Gibbous, 59% of the Moon is Illuminated
Sep 15
Waning Gibbous
Sep 15
Last Quarter
Sep 24
New
Oct 1
First Quarter
Oct 8
Full

Yesterday's Extremes

State Highs State Lows

Community

WunderPhotos

Upload Photos

1,753,414 photos uploaded!

Nearby

Air Quality

  Air Quality AQ Index Pollutant
Yesterday Good
PM2.5

Snow Depth

Station Depth Elevation
No new snow has been reported.

Earthquake Activity

City Distance Mag. Time & Date
No recent earthquake activity has been reported nearby.
Minimum magnitude displayed is 2.5.

Coastal Water Temperatures

Place Temperature
No Stations Reporting

Nearby Weather Stations